Flight Track Log - Related Links

Times and Time Zones

All times are in EDT time to prevent confusion due to time zone crossing. See the N273SK flight status page for this flight to view local times or setup timezone preferences in your user account.

Time Position Orientation Groundspeed Altitude Reporting Facility
EDT Latitude Longitude Course Direction KTS MPH feet Rate Location/Type
Wed 02:28:49 PM 42.2292 -83.3342 56° Northeast 163 188 1,100  Level Cleveland Center
Wed 02:29:32 PM 42.2550 -83.3072 38° Northeast 186 214 2,600 2,250 Climbing Cleveland Center
Wed 02:30:33 PM 42.3019 -83.2558 39° Northeast 221 254 5,000 2,190 Climbing Cleveland Center
Wed 02:31:38 PM 42.3206 -83.1781 72° East 227 261 7,200 2,064 Climbing Cleveland Center
Wed 02:32:00 PM 42.3125 -82.7709 75° East  Level FlightAware Approximate
Wed 02:32:38 PM 42.3103 -83.0764 98° East 232 267 9,300  Level Cleveland Center
Wed 02:33:00 PM 42.3294 -82.6228 82° East  Level FlightAware Approximate
Wed 02:33:38 PM 42.3000 -82.9639 97° East 267 307 10,900  Level Cleveland Center
Wed 02:34:00 PM 42.3526 -82.4781 56° Northeast  Level FlightAware Approximate
Wed 02:34:38 PM 42.3025 -82.8403 88° East 305 351 12,400  Level Cleveland Center
Wed 02:35:38 PM 42.3239 -82.7119 77° East 332 382 14,300 1,700 Climbing Cleveland Center
Wed 02:36:38 PM 42.3469 -82.5750 77° East 352 405 15,800 1,500 Climbing Cleveland Center
Wed 02:37:38 PM 42.3661 -82.4350 79° East 372 428 17,300 1,450 Climbing Cleveland Center
Wed 02:38:38 PM 42.3725 -82.2892 87° East 377 434 18,700 1,350 Climbing Cleveland Center
Wed 02:39:38 PM 42.3808 -82.1347 86° East 390 449 20,000 1,150 Climbing Cleveland Center
Wed 02:40:38 PM 42.3894 -81.9636 86° East 410 472 21,000 500 Climbing Cleveland Center
Wed 02:41:38 PM 42.3997 -81.7894 85° East 440 506 21,000  Level Cleveland Center
Wed 02:42:38 PM 42.4078 -81.6094 86° East 469 540 21,000 -50 Level Cleveland Center
Wed 02:43:38 PM 42.4133 -81.4325 88° East 478 550 20,900  Descending Cleveland Center
Wed 02:44:38 PM 42.4250 -81.2525 85° East 478 550 21,000  Climbing Cleveland Center
Wed 02:45:38 PM 42.4300 -81.0756 88° East 472 543 20,900 -50 Descending Cleveland Center
Wed 02:46:38 PM 42.4369 -80.9039 87° East 460 529 20,900 50 Level Cleveland Center
Wed 02:47:38 PM 42.4433 -80.7492 87° East 460 529 21,000 -300 Climbing Cleveland Center
Wed 02:48:38 PM 42.4497 -80.5803 87° East 455 524 20,300 -850 Descending Cleveland Center
Wed 02:49:38 PM 42.4558 -80.4114 87° East 450 518 19,300 -1,400 Descending Cleveland Center
Wed 02:50:38 PM 42.4617 -80.2428 87° East 445 512 17,500 -1,450 Descending Cleveland Center
Wed 02:51:38 PM 42.4653 -80.0850 88° East 425 489 16,400 -950 Descending Cleveland Center
Wed 02:52:38 PM 42.4750 -79.9103 86° East 420 483 15,600 -850 Descending Cleveland Center
Wed 02:53:38 PM 42.4822 -79.7611 86° East 420 483 14,700 -800 Descending Cleveland Center
Wed 02:54:38 PM 42.4853 -79.6089 88° East 408 470 14,000 -1,000 Descending Cleveland Center
Wed 02:55:38 PM 42.4947 -79.4878 84° East 402 463 12,700 -1,250 Descending Cleveland Center
Wed 02:56:38 PM 42.5956 -79.3789 38° Northeast 354 407 11,500 -1,050 Descending Cleveland Center
Wed 02:57:38 PM 42.6803 -79.2981 35° Northeast 349 402 10,600 -1,050 Descending Cleveland Center
Wed 02:58:38 PM 42.7481 -79.2175 41° Northeast 333 383 9,400 -1,250 Descending Cleveland Center
Wed 02:59:38 PM 42.8139 -79.1425 40° Northeast 315 362 8,100 -1,350 Descending Cleveland Center
Wed 03:00:38 PM 42.8733 -79.0733 40° Northeast 294 338 6,700 -1,200 Descending Cleveland Center
Wed 03:01:38 PM 42.9225 -79.0069 45° Northeast 279 321 5,700 -850 Descending Cleveland Center
Wed 03:02:38 PM 42.9739 -78.9403 43° Northeast 262 302 5,000 -350 Descending Cleveland Center
Wed 03:03:38 PM 43.0289 -78.8536 49° Northeast 262 302 5,000 55 Level Cleveland Center
Wed 03:04:28 PM 43.0667 -78.7833 54° Northeast 269 310 5,100  Climbing Buffalo TRACON
Wed 03:05:28 PM 43.1167 -78.7167 44° Northeast 262 302 5,000 -100 Descending Buffalo TRACON

Login

Don't have an account? Register now (free) for customized features, flight alerts, and more!